METAR Data
IDs: Format: Raw Decoded Include TAF

Data at: 1825 UTC 06 Jul 2020

METAR for:KAUS (Austin/Bergstrom Int, TX, US)
Text:KAUS 061753Z 19006KT 10SM FEW035 BKN150 BKN200 33/23 A2994 RMK AO2 SLP123 T03280228 10328 20256 50007
Temperature: 32.8°C ( 91°F)
Dewpoint: 22.8°C ( 73°F) [RH = 56%]
Pressure (altimeter):29.94 inches Hg (1014.0 mb) [Sea level pressure: 1012.3 mb]
Winds:from the S (190 degrees) at 7 MPH (6 knots; 3.1 m/s)
Visibility:10 or more sm (16+ km)
Ceiling:15000 feet AGL
Clouds: few clouds at 3500 feet AGL, broken clouds at 15000 feet AGL, broken clouds at 20000 feet AGL